San Carmen — WSD2145 — position and weather

sailwx.info

Track history (hours):
 
Tides and Currents Weather Stations Pressure Air Temp Water Temp Dewpoint Dewpoint Depression Visibility Wind Speed Wind Dir Waves Ship Positions

San Carmen

Owner: BUFFALO MARINE SERVICE INC, HOUSTON, TX. More information available from US FCC via Universal Licensing System and Coast Guard Vessel Documentation Center.

Last reported at 2017-Sep-21 16:54 UTC. Time now 2017-Sep-22 20:39 UTC.
Position N 29°44' W 095°04'.

Length 20 m; draft 2.1 m.

Type: Tug. MMSI: 366941810.

Date/timePositionNaut miles runAvg speedWind from/ knotsBaromVisibWave heightAir tempDewpointWater temp
2017-Sep-21 16:54N 29°44' W 095°04'2 4.9
2017-Sep-21 16:24N 29°43' W 095°01'2 4.7
2017-Sep-21 16:00N 29°42' W 094°60'1 1.8
2017-Sep-21 15:30N 29°41' W 094°60'0 0.4
2017-Sep-21 14:45N 29°41' W 095°00'0 0.0
2017-Sep-21 14:30N 29°41' W 095°00'0 0.0
2017-Sep-21 13:59N 29°41' W 095°00'0 0.0
2017-Sep-21 13:30N 29°41' W 095°00'0 0.0
2017-Sep-21 13:00N 29°41' W 095°00'0 0.0
2017-Sep-21 12:30N 29°41' W 095°00'0 0.0
2017-Sep-21 11:48N 29°41' W 095°00'0 0.0
2017-Sep-21 11:30N 29°41' W 095°00'0 0.0
2017-Sep-21 11:00N 29°41' W 095°00'0 0.0
2017-Sep-21 10:14N 29°41' W 095°00'0 0.0
2017-Sep-21 09:59N 29°41' W 095°00'0 0.0
2017-Sep-21 09:30N 29°41' W 095°00'0 0.6
2017-Sep-21 09:00N 29°41' W 094°60'2 3.0
2017-Sep-21 08:30N 29°42' W 095°01'2 5.0
2017-Sep-21 08:00N 29°44' W 095°03'3 5.1
2017-Sep-21 07:29N 29°46' W 095°05'1 0.1
2017-Sep-20 21:49N 29°45' W 095°06'0 0.0
2017-Sep-20 21:30N 29°45' W 095°06'0 0.0
2017-Sep-20 21:00N 29°45' W 095°06'0 0.0
2017-Sep-20 20:27N 29°45' W 095°06'0 0.0
2017-Sep-20 20:00N 29°45' W 095°06'0 0.0
2017-Sep-20 19:30N 29°45' W 095°06'0 0.0
2017-Sep-20 18:58N 29°45' W 095°06'0 0.0
2017-Sep-20 18:30N 29°45' W 095°06'1 0.1
2017-Sep-20 08:29N 29°45' W 095°06'1 0.1
2017-Sep-19 22:26N 29°46' W 095°06'3 4.8
2017-Sep-19 21:51N 29°44' W 095°08'7 1.0
2017-Sep-19 14:26N 29°43' W 095°16'2 4.1
2017-Sep-19 14:00N 29°43' W 095°14'2 0.2
2017-Sep-19 04:50N 29°43' W 095°17'4 5.2
2017-Sep-19 04:02N 29°44' W 095°12'1 6.2
2017-Sep-19 03:51N 29°45' W 095°11'2 5.9
2017-Sep-19 03:27N 29°44' W 095°08'2 2.0
2017-Sep-19 02:11N 29°45' W 095°06'4 2.3
2017-Sep-19 00:32N 29°44' W 095°02'1 5.7
2017-Sep-19 00:21N 29°43' W 095°01'2 5.8
2017-Sep-19 00:00N 29°42' W 094°59'3 6.5
2017-Sep-18 23:30N 29°39' W 094°58'2 3.9
2017-Sep-18 23:00N 29°37' W 094°59'1 2.8
2017-Sep-18 22:30N 29°37' W 095°01'0 0.0
2017-Sep-18 22:00N 29°37' W 095°01'0 0.0
2017-Sep-18 21:30N 29°37' W 095°01'0 0.0
2017-Sep-18 21:00N 29°37' W 095°01'0 0.0
2017-Sep-18 20:30N 29°37' W 095°01'0 0.0
2017-Sep-18 20:00N 29°37' W 095°01'0 0.0
2017-Sep-18 19:30N 29°37' W 095°01'0 0.0
2017-Sep-18 19:00N 29°37' W 095°01'0 0.0
2017-Sep-18 18:30N 29°37' W 095°01'0 0.0
2017-Sep-18 18:00N 29°37' W 095°01'0 0.0
2017-Sep-18 17:30N 29°37' W 095°01'0 0.0
2017-Sep-18 17:00N 29°37' W 095°01'0 0.0
2017-Sep-18 16:30N 29°37' W 095°01'0 0.0
2017-Sep-18 16:00N 29°37' W 095°01'1 1.8
2017-Sep-18 15:30N 29°37' W 094°60'2 3.6
2017-Sep-18 15:00N 29°38' W 094°58'3 6.0
2017-Sep-18 14:30N 29°40' W 094°59'3 5.6
2017-Sep-18 14:00N 29°42' W 095°01'2 4.5
2017-Sep-18 13:30N 29°44' W 095°03'3 5.2
2017-Sep-18 13:00N 29°46' W 095°05'3 5.8
2017-Sep-18 12:26N 29°44' W 095°08'7 0.3
2017-Sep-17 08:33N 29°43' W 095°17'0 0.0
2017-Sep-17 08:23N 29°43' W 095°17'0 0.0
2017-Sep-17 07:55N 29°43' W 095°17'0 0.0
2017-Sep-17 07:30N 29°43' W 095°17'0 0.0
2017-Sep-17 07:00N 29°43' W 095°17'0 0.0
2017-Sep-17 06:29N 29°43' W 095°17'0 0.0
2017-Sep-17 06:00N 29°43' W 095°17'0 0.0
2017-Sep-17 05:29N 29°43' W 095°17'0 0.0
2017-Sep-17 04:59N 29°43' W 095°17'0 0.0
2017-Sep-17 04:28N 29°43' W 095°17'0 0.0
2017-Sep-17 04:00N 29°43' W 095°17'0 0.0
2017-Sep-17 03:30N 29°43' W 095°17'0 0.0
2017-Sep-17 02:59N 29°43' W 095°17'0 0.0
2017-Sep-17 02:29N 29°43' W 095°17'0 0.0
2017-Sep-17 02:00N 29°43' W 095°17'0 0.0
2017-Sep-17 01:29N 29°43' W 095°17'0 0.0
2017-Sep-17 01:00N 29°43' W 095°17'0 0.0
2017-Sep-17 00:17N 29°43' W 095°17'0 1.3
2017-Sep-16 23:58N 29°44' W 095°16'2 2.4
2017-Sep-16 23:20N 29°45' W 095°17'0 0.0
2017-Sep-16 11:34N 29°45' W 095°17'0 0.0
2017-Sep-16 11:29N 29°45' W 095°17'0 0.0
2017-Sep-16 11:00N 29°45' W 095°17'0 0.0
2017-Sep-16 06:18N 29°45' W 095°17'0 0.0
2017-Sep-16 05:59N 29°45' W 095°17'0 0.0
2017-Sep-16 05:30N 29°45' W 095°17'0 0.0
2017-Sep-16 05:00N 29°45' W 095°17'0 0.0
2017-Sep-16 00:47N 29°45' W 095°17'0 0.0
2017-Sep-16 00:29N 29°45' W 095°17'0 0.0
2017-Sep-15 23:56N 29°45' W 095°17'0 0.0
2017-Sep-15 18:44N 29°45' W 095°17'5 0.3
2017-Sep-15 03:25N 29°45' W 095°11'2 5.6
2017-Sep-15 03:00N 29°44' W 095°09'2 0.8
2017-Sep-15 00:24N 29°45' W 095°07'0 0.0
2017-Sep-14 23:31N 29°45' W 095°07'0 0.1
2017-Sep-14 23:29N 29°45' W 095°07'0 0.0
2017-Sep-14 22:45N 29°45' W 095°07'0 0.0
2017-Sep-14 21:18N 29°45' W 095°07'0 0.0
2017-Sep-14 20:40N 29°45' W 095°07'0 0.0
2017-Sep-14 20:25N 29°45' W 095°07'0 0.0
2017-Sep-14 20:00N 29°45' W 095°07'0 0.0
2017-Sep-14 19:25N 29°45' W 095°07'0 0.2
2017-Sep-14 18:48N 29°45' W 095°06'1 3.8
2017-Sep-14 18:26N 29°46' W 095°05'3 4.8
2017-Sep-14 17:52N 29°44' W 095°03'0 0.2
2017-Sep-14 17:23N 29°44' W 095°03'0 0.0
2017-Sep-14 17:00N 29°44' W 095°03'0 0.0
2017-Sep-14 16:22N 29°44' W 095°03'0 0.2
2017-Sep-14 15:46N 29°44' W 095°03'0 0.0
2017-Sep-14 15:30N 29°44' W 095°03'0 0.0
2017-Sep-14 14:59N 29°44' W 095°03'0 0.0
2017-Sep-14 14:30N 29°44' W 095°03'0 0.0
2017-Sep-14 14:00N 29°44' W 095°03'0 0.0
2017-Sep-14 13:30N 29°44' W 095°03'0 0.0
2017-Sep-14 12:59N 29°44' W 095°03'0 0.0
2017-Sep-14 12:16N 29°44' W 095°03'0 0.0
2017-Sep-14 11:52N 29°44' W 095°03'0 0.0
2017-Sep-14 10:41N 29°44' W 095°03'0 0.0
2017-Sep-14 09:00N 29°44' W 095°03'0 0.1
2017-Sep-14 08:29N 29°44' W 095°03'0 1.0
2017-Sep-14 08:00N 29°44' W 095°03'1 1.8
2017-Sep-14 07:30N 29°45' W 095°04'2 0.1
2017-Sep-13 08:24N 29°46' W 095°05'2 4.9
2017-Sep-13 08:00N 29°44' W 095°07'3 6.1
2017-Sep-13 07:30N 29°45' W 095°10'1 0.7
2017-Sep-13 06:32N 29°45' W 095°11'0 0.0
2017-Sep-13 06:24N 29°45' W 095°11'0 0.0
2017-Sep-13 05:56N 29°45' W 095°11'0 0.0
2017-Sep-13 04:11N 29°45' W 095°11'0 0.0
2017-Sep-13 03:52N 29°45' W 095°11'2 2.9
2017-Sep-13 03:10N 29°44' W 095°09'1 6.4
2017-Sep-13 02:58N 29°44' W 095°07'4 4.4
2017-Sep-13 02:07N 29°44' W 095°03'1 6.4
2017-Sep-13 01:57N 29°44' W 095°02'2 5.4
2017-Sep-13 01:30N 29°42' W 094°60'3 5.8
2017-Sep-13 00:56N 29°39' W 094°58'3 6.4
2017-Sep-13 00:30N 29°36' W 094°57'3 6.5
2017-Sep-13 00:00N 29°34' W 094°55'3 6.4
2017-Sep-12 23:29N 29°31' W 094°53'7 0.3
2017-Sep-11 21:24N 29°25' W 094°50'4 6.5
2017-Sep-11 20:44N 29°29' W 094°51'1 6.4
2017-Sep-11 20:30N 29°30' W 094°52'3 6.3
2017-Sep-11 20:00N 29°33' W 094°54'3 5.9
2017-Sep-11 19:30N 29°35' W 094°56'3 6.0
2017-Sep-11 19:00N 29°38' W 094°58'3 6.0
2017-Sep-11 18:30N 29°41' W 094°59'3 6.2
2017-Sep-11 18:00N 29°43' W 095°01'3 5.6
2017-Sep-11 17:29N 29°45' W 095°04'  
Track history (hours):
 
Tides and Currents Weather Stations Pressure Air Temp Water Temp Dewpoint Dewpoint Depression Visibility Wind Speed Wind Dir Waves Ship Positions

San Carmen

Owner: BUFFALO MARINE SERVICE INC, HOUSTON, TX. More information available from US FCC via Universal Licensing System and Coast Guard Vessel Documentation Center.

Last reported at 2017-Sep-21 16:54 UTC. Time now 2017-Sep-22 20:39 UTC.
Position N 29°44' W 095°04'.

Length 20 m; draft 2.1 m.

Type: Tug. MMSI: 366941810.

Date/timePositionNaut miles runAvg speedWind from/ knotsBaromVisibWave heightAir tempDewpointWater temp
2017-Sep-21 16:54N 29°44' W 095°04'2 4.9
2017-Sep-21 16:24N 29°43' W 095°01'2 4.7
2017-Sep-21 16:00N 29°42' W 094°60'1 1.8
2017-Sep-21 15:30N 29°41' W 094°60'0 0.4
2017-Sep-21 14:45N 29°41' W 095°00'0 0.0
2017-Sep-21 14:30N 29°41' W 095°00'0 0.0
2017-Sep-21 13:59N 29°41' W 095°00'0 0.0
2017-Sep-21 13:30N 29°41' W 095°00'0 0.0
2017-Sep-21 13:00N 29°41' W 095°00'0 0.0
2017-Sep-21 12:30N 29°41' W 095°00'0 0.0
2017-Sep-21 11:48N 29°41' W 095°00'0 0.0
2017-Sep-21 11:30N 29°41' W 095°00'0 0.0
2017-Sep-21 11:00N 29°41' W 095°00'0 0.0
2017-Sep-21 10:14N 29°41' W 095°00'0 0.0
2017-Sep-21 09:59N 29°41' W 095°00'0 0.0
2017-Sep-21 09:30N 29°41' W 095°00'0 0.6
2017-Sep-21 09:00N 29°41' W 094°60'2 3.0
2017-Sep-21 08:30N 29°42' W 095°01'2 5.0
2017-Sep-21 08:00N 29°44' W 095°03'3 5.1
2017-Sep-21 07:29N 29°46' W 095°05'1 0.1
2017-Sep-20 21:49N 29°45' W 095°06'0 0.0
2017-Sep-20 21:30N 29°45' W 095°06'0 0.0
2017-Sep-20 21:00N 29°45' W 095°06'0 0.0
2017-Sep-20 20:27N 29°45' W 095°06'0 0.0
2017-Sep-20 20:00N 29°45' W 095°06'0 0.0
2017-Sep-20 19:30N 29°45' W 095°06'0 0.0
2017-Sep-20 18:58N 29°45' W 095°06'0 0.0
2017-Sep-20 18:30N 29°45' W 095°06'1 0.1
2017-Sep-20 08:29N 29°45' W 095°06'1 0.1
2017-Sep-19 22:26N 29°46' W 095°06'3 4.8
2017-Sep-19 21:51N 29°44' W 095°08'7 1.0
2017-Sep-19 14:26N 29°43' W 095°16'2 4.1
2017-Sep-19 14:00N 29°43' W 095°14'2 0.2
2017-Sep-19 04:50N 29°43' W 095°17'4 5.2
2017-Sep-19 04:02N 29°44' W 095°12'1 6.2
2017-Sep-19 03:51N 29°45' W 095°11'2 5.9
2017-Sep-19 03:27N 29°44' W 095°08'2 2.0
2017-Sep-19 02:11N 29°45' W 095°06'4 2.3
2017-Sep-19 00:32N 29°44' W 095°02'1 5.7
2017-Sep-19 00:21N 29°43' W 095°01'2 5.8
2017-Sep-19 00:00N 29°42' W 094°59'3 6.5
2017-Sep-18 23:30N 29°39' W 094°58'2 3.9
2017-Sep-18 23:00N 29°37' W 094°59'1 2.8
2017-Sep-18 22:30N 29°37' W 095°01'0 0.0
2017-Sep-18 22:00N 29°37' W 095°01'0 0.0
2017-Sep-18 21:30N 29°37' W 095°01'0 0.0
2017-Sep-18 21:00N 29°37' W 095°01'0 0.0
2017-Sep-18 20:30N 29°37' W 095°01'0 0.0
2017-Sep-18 20:00N 29°37' W 095°01'0 0.0
2017-Sep-18 19:30N 29°37' W 095°01'0 0.0
2017-Sep-18 19:00N 29°37' W 095°01'0 0.0
2017-Sep-18 18:30N 29°37' W 095°01'0 0.0
2017-Sep-18 18:00N 29°37' W 095°01'0 0.0
2017-Sep-18 17:30N 29°37' W 095°01'0 0.0
2017-Sep-18 17:00N 29°37' W 095°01'0 0.0
2017-Sep-18 16:30N 29°37' W 095°01'0 0.0
2017-Sep-18 16:00N 29°37' W 095°01'1 1.8
2017-Sep-18 15:30N 29°37' W 094°60'2 3.6
2017-Sep-18 15:00N 29°38' W 094°58'3 6.0
2017-Sep-18 14:30N 29°40' W 094°59'3 5.6
2017-Sep-18 14:00N 29°42' W 095°01'2 4.5
2017-Sep-18 13:30N 29°44' W 095°03'3 5.2
2017-Sep-18 13:00N 29°46' W 095°05'3 5.8
2017-Sep-18 12:26N 29°44' W 095°08'7 0.3
2017-Sep-17 08:33N 29°43' W 095°17'0 0.0
2017-Sep-17 08:23N 29°43' W 095°17'0 0.0
2017-Sep-17 07:55N 29°43' W 095°17'0 0.0
2017-Sep-17 07:30N 29°43' W 095°17'0 0.0
2017-Sep-17 07:00N 29°43' W 095°17'0 0.0
2017-Sep-17 06:29N 29°43' W 095°17'0 0.0
2017-Sep-17 06:00N 29°43' W 095°17'0 0.0
2017-Sep-17 05:29N 29°43' W 095°17'0 0.0
2017-Sep-17 04:59N 29°43' W 095°17'0 0.0
2017-Sep-17 04:28N 29°43' W 095°17'0 0.0
2017-Sep-17 04:00N 29°43' W 095°17'0 0.0
2017-Sep-17 03:30N 29°43' W 095°17'0 0.0
2017-Sep-17 02:59N 29°43' W 095°17'0 0.0
2017-Sep-17 02:29N 29°43' W 095°17'0 0.0
2017-Sep-17 02:00N 29°43' W 095°17'0 0.0
2017-Sep-17 01:29N 29°43' W 095°17'0 0.0
2017-Sep-17 01:00N 29°43' W 095°17'0 0.0
2017-Sep-17 00:17N 29°43' W 095°17'0 1.3
2017-Sep-16 23:58N 29°44' W 095°16'2 2.4
2017-Sep-16 23:20N 29°45' W 095°17'0 0.0
2017-Sep-16 11:34N 29°45' W 095°17'0 0.0
2017-Sep-16 11:29N 29°45' W 095°17'0 0.0
2017-Sep-16 11:00N 29°45' W 095°17'0 0.0
2017-Sep-16 06:18N 29°45' W 095°17'0 0.0
2017-Sep-16 05:59N 29°45' W 095°17'0 0.0
2017-Sep-16 05:30N 29°45' W 095°17'0 0.0
2017-Sep-16 05:00N 29°45' W 095°17'0 0.0
2017-Sep-16 00:47N 29°45' W 095°17'0 0.0
2017-Sep-16 00:29N 29°45' W 095°17'0 0.0
2017-Sep-15 23:56N 29°45' W 095°17'0 0.0
2017-Sep-15 18:44N 29°45' W 095°17'5 0.3
2017-Sep-15 03:25N 29°45' W 095°11'2 5.6
2017-Sep-15 03:00N 29°44' W 095°09'2 0.8
2017-Sep-15 00:24N 29°45' W 095°07'0 0.0
2017-Sep-14 23:31N 29°45' W 095°07'0 0.1
2017-Sep-14 23:29N 29°45' W 095°07'0 0.0
2017-Sep-14 22:45N 29°45' W 095°07'0 0.0
2017-Sep-14 21:18N 29°45' W 095°07'0 0.0
2017-Sep-14 20:40N 29°45' W 095°07'0 0.0
2017-Sep-14 20:25N 29°45' W 095°07'0 0.0
2017-Sep-14 20:00N 29°45' W 095°07'0 0.0
2017-Sep-14 19:25N 29°45' W 095°07'0 0.2
2017-Sep-14 18:48N 29°45' W 095°06'1 3.8
2017-Sep-14 18:26N 29°46' W 095°05'3 4.8
2017-Sep-14 17:52N 29°44' W 095°03'0 0.2
2017-Sep-14 17:23N 29°44' W 095°03'0 0.0
2017-Sep-14 17:00N 29°44' W 095°03'0 0.0
2017-Sep-14 16:22N 29°44' W 095°03'0 0.2
2017-Sep-14 15:46N 29°44' W 095°03'0 0.0
2017-Sep-14 15:30N 29°44' W 095°03'0 0.0
2017-Sep-14 14:59N 29°44' W 095°03'0 0.0
2017-Sep-14 14:30N 29°44' W 095°03'0 0.0
2017-Sep-14 14:00N 29°44' W 095°03'0 0.0
2017-Sep-14 13:30N 29°44' W 095°03'0 0.0
2017-Sep-14 12:59N 29°44' W 095°03'0 0.0
2017-Sep-14 12:16N 29°44' W 095°03'0 0.0
2017-Sep-14 11:52N 29°44' W 095°03'0 0.0
2017-Sep-14 10:41N 29°44' W 095°03'0 0.0
2017-Sep-14 09:00N 29°44' W 095°03'0 0.1
2017-Sep-14 08:29N 29°44' W 095°03'0 1.0
2017-Sep-14 08:00N 29°44' W 095°03'1 1.8
2017-Sep-14 07:30N 29°45' W 095°04'2 0.1
2017-Sep-13 08:24N 29°46' W 095°05'2 4.9
2017-Sep-13 08:00N 29°44' W 095°07'3 6.1
2017-Sep-13 07:30N 29°45' W 095°10'1 0.7
2017-Sep-13 06:32N 29°45' W 095°11'0 0.0
2017-Sep-13 06:24N 29°45' W 095°11'0 0.0
2017-Sep-13 05:56N 29°45' W 095°11'0 0.0
2017-Sep-13 04:11N 29°45' W 095°11'0 0.0
2017-Sep-13 03:52N 29°45' W 095°11'2 2.9
2017-Sep-13 03:10N 29°44' W 095°09'1 6.4
2017-Sep-13 02:58N 29°44' W 095°07'4 4.4
2017-Sep-13 02:07N 29°44' W 095°03'1 6.4
2017-Sep-13 01:57N 29°44' W 095°02'2 5.4
2017-Sep-13 01:30N 29°42' W 094°60'3 5.8
2017-Sep-13 00:56N 29°39' W 094°58'3 6.4
2017-Sep-13 00:30N 29°36' W 094°57'3 6.5
2017-Sep-13 00:00N 29°34' W 094°55'3 6.4
2017-Sep-12 23:29N 29°31' W 094°53'7 0.3
2017-Sep-11 21:24N 29°25' W 094°50'4 6.5
2017-Sep-11 20:44N 29°29' W 094°51'1 6.4
2017-Sep-11 20:30N 29°30' W 094°52'3 6.3
2017-Sep-11 20:00N 29°33' W 094°54'3 5.9
2017-Sep-11 19:30N 29°35' W 094°56'3 6.0
2017-Sep-11 19:00N 29°38' W 094°58'3 6.0
2017-Sep-11 18:30N 29°41' W 094°59'3 6.2
2017-Sep-11 18:00N 29°43' W 095°01'3 5.6
2017-Sep-11 17:29N 29°45' W 095°04'  

Dump ship's entire track history